• Join FlightAware (Why Join?)
  • Login
  • US Flag 
05:33AM EDT


 

Airport Tracker/Info


-or-


 

Live Flight TrackerFlight Track Log ✈ N9305N ✈ 25-Jan-2014 ✈ KORL - KSGJ

Flight Track Log - Related Links

Times and Time Zones

All times are in EST time to prevent confusion due to time zone crossing. See the N9305N flight status page for this flight to view local times or setup timezone preferences in your user account.

Time Position Orientation Groundspeed Altitude Reporting Facility
EST Latitude Longitude Course Direction KTS MPH feet Rate Location/Type
11:27AM 28.5500 -81.3167 41° Northeast 83 96 400  Level Orlando TRACON
11:29AM 28.5667 -81.3000 41° Northeast 90 104 1,200 480 Climbing Orlando TRACON
11:30AM 28.5833 -81.2667 60° Northeast 106 122 1,600 180 Climbing Orlando TRACON
11:31AM 28.6000 -81.2333 60° Northeast 126 145 1,600  Level Orlando TRACON
11:32AM 28.6333 -81.2000 41° Northeast 120 138 1,600 180 Level Orlando TRACON
11:33AM 28.6500 -81.1833 41° Northeast 108 124 2,000 420 Climbing Orlando TRACON
11:34AM 28.6667 -81.1500 60° Northeast 111 128 2,500 480 Climbing Orlando TRACON
11:35AM 28.6833 -81.1167 60° Northeast 112 129 3,000 420 Climbing Orlando TRACON
11:36AM 28.7000 -81.1000 41° Northeast 102 117 3,400 360 Climbing Orlando TRACON
11:37AM 28.7333 -81.1000 360° North 105 121 3,800 360 Climbing Orlando TRACON
11:38AM 28.7667 -81.1000 360° North 105 121 4,300 360 Climbing Orlando TRACON
11:39AM 28.8000 -81.1000 360° North 108 124 4,600 360 Climbing Orlando TRACON
11:40AM 28.8167 -81.1167 319° Northwest 85 98 5,000 180 Climbing Orlando TRACON
11:41AM 28.8167 -81.1333 270° West 94 108 5,000  Level Orlando TRACON
11:42AM 28.8333 -81.1667 300° West 93 107 5,000  Level Orlando TRACON
11:43AM 28.8500 -81.1833 319° Northwest 89 102 5,000  Level Orlando TRACON
11:44AM 28.8667 -81.2000 319° Northwest 87 100 5,000  Level Orlando TRACON
11:45AM 28.8822 -81.2328 298° West 90 104 5,100  Climbing Jacksonville Center
11:46AM 28.8992 -81.2586 307° West 88 101 5,100  Level Jacksonville Center
11:47AM 28.9161 -81.2844 307° West 89 102 5,100  Level Jacksonville Center
11:48AM 28.9333 -81.3103 307° West 92 106 5,100  Level Jacksonville Center
11:49AM 28.9500 -81.3242 324° Northwest 113 130 5,100  Level Jacksonville Center
11:50AM 28.9833 -81.3236 North 116 133 5,100  Level Jacksonville Center
11:51AM 29.0211 -81.3231 North 113 130 5,100  Level Jacksonville Center
11:52AM 29.0481 -81.3250 356° North 107 123 5,100  Level Jacksonville Center
11:53AM 29.0794 -81.3244 North 110 127 5,100  Level Jacksonville Center
11:54AM 29.1108 -81.3264 357° North 110 127 5,100  Level Jacksonville Center
11:55AM 29.1442 -81.3258 North 108 124 5,100  Level Jacksonville Center
11:56AM 29.1775 -81.3278 357° North 107 123 5,100 -60 Level Jacksonville Center
11:57AM 29.2089 -81.3294 357° North 109 125 5,000 -60 Descending Jacksonville Center
11:58AM 29.2381 -81.3292 360° North 112 129 5,000  Level Jacksonville Center
11:59AM 29.2717 -81.3286 North 111 128 5,000  Level Jacksonville Center
12:00PM 29.3008 -81.3281 North 111 128 5,000  Level Jacksonville Center
12:01PM 29.3322 -81.3325 353° North 108 124 5,000  Level Jacksonville Center
12:02PM 29.3614 -81.3319 North 108 124 5,000  Level Jacksonville Center
12:03PM 29.3906 -81.3314 North 109 125 5,000  Level Jacksonville Center
12:04PM 29.4219 -81.3308 North 110 127 5,000  Level Jacksonville Center
12:05PM 29.4533 -81.3353 353° North 108 124 5,000  Level Jacksonville Center
12:06PM 29.4844 -81.3347 North 109 125 5,000  Level Jacksonville Center
12:07PM 29.5117 -81.3342 North 108 124 5,000 -240 Level Jacksonville Center
12:08PM 29.5431 -81.3339 360° North 115 132 4,600 -420 Descending Jacksonville Center
12:09PM 29.5744 -81.3356 357° North 122 140 4,200 -420 Descending Jacksonville Center
12:10PM 29.6097 -81.3350 North 124 143 3,800 -420 Descending Jacksonville Center
12:11PM 29.6433 -81.3369 357° North 126 145 3,400 -420 Descending Jacksonville Center
12:11PM 29.6578 -81.3367 North 128 147 3,300 -360 Descending Jacksonville Center
12:12PM 29.6767 -81.3364 North 130 150 3,100 -240 Descending Jacksonville Center
12:13PM 29.7122 -81.3358 North 122 140 3,000 -60 Descending Jacksonville Center
12:14PM 29.7433 -81.3378 357° North 120 138 3,000  Level Jacksonville Center
12:15PM 29.7789 -81.3394 358° North 121 139 3,000  Level Jacksonville Center
12:16PM 29.8081 -81.3367 North 125 144 3,000  Level Jacksonville Center
12:17PM 29.8458 -81.3386 357° North 117 135 3,000 -240 Level Jacksonville Center
12:18PM 29.8833 -81.3356 North 144 166 2,600 -540 Descending Jacksonville Center
12:19PM 29.9103 -81.3111 38° Northeast 125 144 2,000 -780 Descending Jacksonville Center
12:20PM 29.9350 -81.3058 10° North 124 143 1,100 -660 Descending Jacksonville Center
12:21PM 29.9519 -81.3225 320° Northwest 113 130 700 -240 Descending Jacksonville Center
12:22PM 29.9519 -81.3225 360° North 113 130 700  Level Jacksonville Center
12:24PM 29.9519 -81.3225 360° North 113 130 700  Level Jacksonville Center